Time;durP1;ratioP1;P1;durP2;ratioP2;P2;SDS_P1;SDS_P2;PMS_P1;PMS_P2;Temp;Humidity;BMP_temperature;BMP_pressure;BME280_temperature;BME280_humidity;BME280_pressure;Samples;Min_cycle;Max_cycle;Signal;HPM_P1;HPM_P2
2021/12/17 00:07:10;;;;;;;41.78;17.60;;;8.60;99.90;;;;;;5094883;28;20134;-69
2021/12/17 00:09:37;;;;;;;38.13;17.10;;;8.50;99.90;;;;;;5076465;28;20048;-69
2021/12/17 00:12:05;;;;;;;42.35;17.35;;;9.50;99.90;;;;;;5093659;28;20094;-71
2021/12/17 00:14:36;;;;;;;36.83;15.65;;;;;;;;;;5076055;28;20040;-71
2021/12/17 00:17:06;;;;;;;43.78;16.48;;;9.30;99.90;;;;;;5093618;28;20464;-72
2021/12/17 00:49:22;;;;;;;27.95;12.80;;;8.60;99.90;;;;;;5092671;28;20534;-71
2021/12/17 00:51:57;;;;;;;24.55;12.10;;;;;;;;;;5102471;28;20047;-71
2021/12/17 00:54:35;;;;;;;28.05;13.27;;;9.10;99.90;;;;;;5113070;28;20097;-71
2021/12/17 00:57:09;;;;;;;23.90;12.90;;;9.10;99.90;;;;;;5112764;28;20052;-71
2021/12/17 00:59:35;;;;;;;25.40;12.75;;;8.70;99.90;;;;;;5102555;28;20066;-71
2021/12/17 01:02:04;;;;;;;21.95;11.30;;;8.70;99.90;;;;;;5095896;28;20122;-71
2021/12/17 01:04:30;;;;;;;21.90;11.82;;;7.90;99.90;;;;;;5113047;28;20043;-71
2021/12/17 01:06:56;;;;;;;23.33;11.48;;;;;;;;;;5095819;28;20564;-71
2021/12/17 01:09:25;;;;;;;23.45;12.63;;;8.70;99.90;;;;;;5094106;28;20069;-71
2021/12/17 01:11:52;;;;;;;23.05;12.35;;;8.70;99.90;;;;;;5099313;28;20051;-71
2021/12/17 01:14:19;;;;;;;27.52;13.25;;;;;;;;;;5092346;28;20495;-71
2021/12/17 01:16:45;;;;;;;24.52;12.32;;;;;;;;;;5098160;28;20115;-71
2021/12/17 01:25:34;;;;;;;21.98;12.02;;;;;;;;;;5022120;28;20095;-71
2021/12/17 01:36:13;;;;;;;23.35;11.70;;;8.60;99.90;;;;;;5102165;28;20110;-69
2021/12/17 01:44:05;;;;;;;31.50;13.65;;;8.50;99.90;;;;;;5116571;28;20040;-71
2021/12/17 01:46:35;;;;;;;25.63;12.63;;;8.60;99.90;;;;;;5096130;28;20044;-71
2021/12/17 02:00:19;;;;;;;28.20;12.20;;;8.30;99.90;;;;;;5058150;28;20451;-71
2021/12/17 02:02:52;;;;;;;28.27;12.65;;;8.70;99.90;;;;;;5057715;28;20037;-71
2021/12/17 02:05:19;;;;;;;23.38;11.73;;;;;;;;;;5069705;28;20059;-71
2021/12/17 02:07:47;;;;;;;27.08;13.13;;;;;;;;;;5112004;28;20104;-71
2021/12/17 02:10:48;;;;;;;26.35;12.68;;;;;;;;;;5116399;28;20077;-71
2021/12/17 02:22:12;;;;;;;27.88;13.80;;;7.70;99.90;;;;;;5116162;28;20035;-71
2021/12/17 02:32:17;;;;;;;31.67;14.40;;;;;;;;;;5111689;28;20086;-71
2021/12/17 02:37:13;;;;;;;29.75;14.05;;;8.00;99.90;;;;;;5095209;28;20052;-71
2021/12/17 02:47:58;;;;;;;32.72;14.15;;;8.50;99.90;;;;;;5103051;28;20050;-71
2021/12/17 02:50:24;;;;;;;32.72;14.70;;;;;;;;;;5095030;28;20027;-72
2021/12/17 02:52:53;;;;;;;30.30;12.93;;;8.30;99.90;;;;;;5093612;28;20082;-71
2021/12/17 02:55:20;;;;;;;32.88;13.52;;;8.50;99.90;;;;;;5077376;28;20047;-71
2021/12/17 02:57:46;;;;;;;33.05;13.32;;;;;;;;;;5094686;28;20040;-71
2021/12/17 03:00:13;;;;;;;33.28;13.18;;;8.30;99.90;;;;;;5114344;28;20475;-72
2021/12/17 03:02:40;;;;;;;31.15;12.95;;;8.60;99.90;;;;;;5098018;28;20497;-71
2021/12/17 03:05:07;;;;;;;32.45;12.88;;;8.70;99.90;;;;;;5113273;28;20043;-71
2021/12/17 03:07:37;;;;;;;34.08;14.07;;;;;;;;;;5115220;28;20048;-71
2021/12/17 03:10:06;;;;;;;39.13;13.98;;;8.70;99.90;;;;;;5097215;28;20044;-71
2021/12/17 03:12:53;;;;;;;34.50;12.60;;;8.40;99.90;;;;;;5094548;28;20479;-71
2021/12/17 03:23:29;;;;;;;34.40;13.50;;;;;;;;;;5094274;28;20051;-71
2021/12/17 03:26:05;;;;;;;39.10;14.27;;;8.40;99.90;;;;;;5089367;28;20050;-71
2021/12/17 03:28:32;;;;;;;39.35;12.93;;;;;;;;;;5110628;28;20110;-71
2021/12/17 03:30:58;;;;;;;31.45;11.60;;;8.70;99.90;;;;;;5094210;28;20036;-71
2021/12/17 03:33:24;;;;;;;40.15;11.75;;;;;;;;;;5094086;28;20040;-71
2021/12/17 03:35:50;;;;;;;36.40;11.55;;;;;;;;;;5095089;28;20122;-71
2021/12/17 03:38:17;;;;;;;35.63;11.90;;;8.60;99.90;;;;;;5095457;28;20052;-71
2021/12/17 03:40:44;;;;;;;35.72;12.07;;;;;;;;;;5114451;28;20368;-71
2021/12/17 03:43:12;;;;;;;35.80;11.00;;;8.30;99.90;;;;;;5080723;28;20043;-71
2021/12/17 03:45:40;;;;;;;34.95;10.80;;;8.40;99.90;;;;;;5112736;28;20047;-71
2021/12/17 03:48:07;;;;;;;28.95;9.73;;;;;;;;;;5113878;28;20100;-71
2021/12/17 03:50:34;;;;;;;43.60;11.90;;;;;;;;;;5079245;28;20039;-71
2021/12/17 03:53:01;;;;;;;36.10;10.63;;;;;;;;;;5114401;28;20510;-71
2021/12/17 03:55:27;;;;;;;45.10;12.00;;;;;;;;;;5114171;28;20051;-71
2021/12/17 03:57:53;;;;;;;34.50;10.48;;;8.50;99.90;;;;;;5101852;28;20519;-71
2021/12/17 04:00:19;;;;;;;40.03;11.18;;;7.40;99.90;;;;;;5060696;28;20074;-71
2021/12/17 04:02:46;;;;;;;39.45;11.30;;;8.30;99.90;;;;;;5093713;28;20055;-71
2021/12/17 04:05:11;;;;;;;39.47;11.15;;;7.50;99.90;;;;;;5093455;28;20032;-71
2021/12/17 04:07:37;;;;;;;37.17;9.90;;;9.20;99.90;;;;;;5094367;28;20043;-71
2021/12/17 04:10:04;;;;;;;41.78;10.57;;;8.90;99.90;;;;;;5090342;28;20040;-71
2021/12/17 04:12:46;;;;;;;39.38;10.63;;;;;;;;;;5113659;28;20045;-71
2021/12/17 04:15:13;;;;;;;35.90;11.00;;;;;;;;;;5099294;28;20474;-71
2021/12/17 04:17:53;;;;;;;30.95;9.98;;;;;;;;;;5111589;28;20109;-71
2021/12/17 04:20:19;;;;;;;34.58;9.98;;;8.00;99.90;;;;;;5094172;28;20040;-71
2021/12/17 04:22:45;;;;;;;35.65;10.05;;;;;;;;;;5093135;28;20047;-71
2021/12/17 04:25:11;;;;;;;36.60;11.52;;;8.50;99.90;;;;;;5076404;28;20072;-71
2021/12/17 04:27:37;;;;;;;39.83;10.82;;;;;;;;;;5076361;28;20078;-71
2021/12/17 04:30:03;;;;;;;35.63;10.00;;;9.20;99.90;;;;;;5077516;28;20087;-71
2021/12/17 04:32:29;;;;;;;35.20;10.45;;;8.60;99.90;;;;;;5093081;28;20130;-71
2021/12/17 04:34:55;;;;;;;34.50;10.55;;;;;;;;;;5076158;28;20127;-71
2021/12/17 04:37:21;;;;;;;29.58;9.68;;;;;;;;;;5092600;28;20044;-71
2021/12/17 04:39:47;;;;;;;37.58;10.40;;;;;;;;;;5093873;28;20047;-71
2021/12/17 04:42:25;;;;;;;32.17;10.23;;;9.40;99.90;;;;;;5103693;28;20558;-71
2021/12/17 04:44:55;;;;;;;32.53;10.57;;;;;;;;;;5088025;28;20046;-71
2021/12/17 04:58:19;;;;;;;33.50;9.98;;;;;;;;;;5111446;28;20479;-71
2021/12/17 05:00:45;;;;;;;32.13;10.02;;;;;;;;;;5112345;28;20043;-71
2021/12/17 05:03:11;;;;;;;34.20;10.43;;;;;;;;;;5101456;28;20040;-71
2021/12/17 05:05:37;;;;;;;36.60;11.02;;;;;;;;;;5092687;28;20036;-71
2021/12/17 05:08:08;;;;;;;29.17;9.88;;;9.00;99.90;;;;;;5076659;28;20518;-71
2021/12/17 05:18:42;;;;;;;35.80;8.45;;;;;;;;;;5110736;28;20051;-71
2021/12/17 05:21:10;;;;;;;28.10;9.30;;;;;;;;;;5112661;28;20051;-71
2021/12/17 05:23:41;;;;;;;26.45;9.13;;;8.50;99.90;;;;;;5098380;28;20093;-71
2021/12/17 05:26:12;;;;;;;24.63;9.82;;;8.40;99.90;;;;;;5059444;28;20094;-71
2021/12/17 05:28:38;;;;;;;28.73;9.73;;;;;;;;;;5109913;28;20121;-71
2021/12/17 05:31:05;;;;;;;24.40;8.05;;;;;;;;;;5076324;28;20417;-71
2021/12/17 05:33:31;;;;;;;21.67;8.60;;;8.50;99.90;;;;;;5088244;28;20438;-71
2021/12/17 05:35:57;;;;;;;24.85;8.40;;;;;;;;;;5112347;28;20047;-71
2021/12/17 05:38:24;;;;;;;24.58;9.18;;;8.50;99.90;;;;;;5095840;28;20058;-71
2021/12/17 05:40:51;;;;;;;25.90;9.80;;;8.20;99.90;;;;;;5094284;28;20039;-71
2021/12/17 05:43:17;;;;;;;24.23;8.48;;;;;;;;;;5094122;28;20119;-71
2021/12/17 05:46:01;;;;;;;29.05;9.18;;;8.60;99.90;;;;;;5112498;28;20032;-71
2021/12/17 05:48:28;;;;;;;18.50;8.25;;;;;;;;;;5112426;28;20039;-71
2021/12/17 05:50:57;;;;;;;25.27;8.93;;;8.30;99.90;;;;;;5110726;28;20048;-71
2021/12/17 05:53:23;;;;;;;29.25;9.85;;;;;;;;;;5097131;28;20036;-71
2021/12/17 05:55:49;;;;;;;27.45;9.25;;;;;;;;;;5091857;28;20128;-71
2021/12/17 05:58:16;;;;;;;24.05;9.63;;;8.50;99.90;;;;;;5095198;28;20503;-71
2021/12/17 06:00:43;;;;;;;25.75;9.50;;;7.40;99.90;;;;;;5111584;28;20036;-71
2021/12/17 06:03:09;;;;;;;23.67;8.55;;;;;;;;;;5111558;28;20499;-72
2021/12/17 06:05:35;;;;;;;23.48;9.40;;;;;;;;;;5110294;28;20440;-72
2021/12/17 06:08:01;;;;;;;29.95;10.63;;;;;;;;;;5091767;28;20032;-72
2021/12/17 06:10:28;;;;;;;26.33;9.55;;;;;;;;;;5092997;28;20048;-72
2021/12/17 06:12:54;;;;;;;29.58;9.65;;;;;;;;;;5109262;28;20501;-72
2021/12/17 06:15:21;;;;;;;25.75;9.40;;;8.50;99.90;;;;;;5101562;28;20035;-71
2021/12/17 06:17:48;;;;;;;28.83;9.55;;;7.50;99.90;;;;;;5110779;28;20411;-71
2021/12/17 06:20:16;;;;;;;26.42;8.48;;;8.30;99.90;;;;;;5111893;28;20040;-71
2021/12/17 06:22:42;;;;;;;25.48;9.40;;;8.50;99.90;;;;;;5115412;28;20071;-71
2021/12/17 06:25:09;;;;;;;28.73;10.27;;;8.80;99.90;;;;;;5115940;28;20071;-71
2021/12/17 06:27:35;;;;;;;28.98;10.70;;;;;;;;;;5115882;28;20048;-72
2021/12/17 06:30:04;;;;;;;26.30;10.07;;;9.10;99.90;;;;;;5098677;28;20063;-71
2021/12/17 06:32:30;;;;;;;35.00;10.95;;;;;;;;;;5103355;28;20031;-71
2021/12/17 06:34:56;;;;;;;29.95;10.00;;;8.50;99.90;;;;;;5116028;28;20091;-71
2021/12/17 06:37:22;;;;;;;37.58;11.40;;;;;;;;;;5115417;28;20044;-71
2021/12/17 06:39:48;;;;;;;34.58;11.68;;;;;;;;;;5106737;28;20035;-71
2021/12/17 06:42:15;;;;;;;31.77;10.63;;;;;;;;;;5115431;28;20364;-71
2021/12/17 06:44:42;;;;;;;32.70;11.10;;;9.40;99.90;;;;;;5113797;28;20051;-72
2021/12/17 07:00:14;;;;;;;34.28;11.40;;;;;;;;;;5096073;28;20090;-71
2021/12/17 07:10:43;;;;;;;40.80;12.02;;;;;;;;;;5114856;28;20101;-71
2021/12/17 07:32:20;;;;;;;47.97;12.43;;;;;;;;;;5093844;28;20537;-72
2021/12/17 07:35:23;;;;;;;34.53;12.85;;;;;;;;;;5077212;28;20050;-71
2021/12/17 07:40:09;;;;;;;37.63;12.75;;;8.50;99.90;;;;;;5111228;28;20039;-71
2021/12/17 07:42:35;;;;;;;38.80;13.10;;;;;;;;;;5096562;28;20050;-71
2021/12/17 07:45:01;;;;;;;38.45;12.80;;;;;;;;;;5114021;28;20039;-71
2021/12/17 07:47:27;;;;;;;36.58;12.88;;;7.70;99.90;;;;;;5113891;28;20387;-71
2021/12/17 07:49:54;;;;;;;33.05;12.30;;;;;;;;;;5112388;28;20040;-71
2021/12/17 07:52:20;;;;;;;35.22;12.73;;;;;;;;;;5114036;28;20040;-71
2021/12/17 07:54:46;;;;;;;37.30;12.43;;;;;;;;;;5113959;28;20118;-71
2021/12/17 07:57:12;;;;;;;33.30;12.27;;;;;;;;;;5112226;28;20080;-71
2021/12/17 07:59:39;;;;;;;40.65;12.52;;;;;;;;;;5094402;28;20047;-72
2021/12/17 08:02:06;;;;;;;41.45;13.18;;;;;;;;;;5097263;28;20039;-71
2021/12/17 08:04:34;;;;;;;35.88;12.70;;;9.40;99.90;;;;;;5104570;28;20119;-71
2021/12/17 08:07:00;;;;;;;36.40;11.48;;;;;;;;;;5089799;28;20114;-71
2021/12/17 08:09:28;;;;;;;39.55;12.73;;;9.50;99.90;;;;;;5091971;28;20050;-71
2021/12/17 08:11:56;;;;;;;32.28;13.10;;;;;;;;;;5113729;28;20127;-71
2021/12/17 08:14:23;;;;;;;37.50;13.68;;;;;;;;;;5114048;28;20052;-71
2021/12/17 08:17:05;;;;;;;39.15;12.98;;;;;;;;;;5095191;28;20118;-71
2021/12/17 08:29:56;;;;;;;30.98;11.32;;;;;;;;;;5092993;28;20222;-81
2021/12/17 08:32:22;;;;;;;31.58;11.52;;;;;;;;;;5092738;28;20055;-82
2021/12/17 08:34:49;;;;;;;36.28;12.20;;;9.50;99.90;;;;;;5092987;28;20394;-70
2021/12/17 08:37:15;;;;;;;31.45;12.32;;;;;;;;;;5109838;28;20047;-71
2021/12/17 08:39:41;;;;;;;31.00;11.50;;;8.70;99.90;;;;;;5110418;28;20452;-71
2021/12/17 08:42:09;;;;;;;36.10;12.23;;;8.60;99.90;;;;;;5076821;28;20040;-71
2021/12/17 08:44:35;;;;;;;29.08;11.52;;;8.80;99.90;;;;;;5102424;28;20101;-71
2021/12/17 08:47:02;;;;;;;31.55;11.23;;;;;;;;;;5113133;28;20476;-71
2021/12/17 08:49:28;;;;;;;26.52;10.63;;;;;;;;;;5093156;28;20082;-71
2021/12/17 08:51:54;;;;;;;30.20;11.68;;;;;;;;;;5092649;28;20044;-72
2021/12/17 08:54:20;;;;;;;36.88;11.38;;;;;;;;;;5099286;28;20072;-71
2021/12/17 08:56:48;;;;;;;31.48;11.65;;;9.60;99.90;;;;;;5113168;28;20123;-71
2021/12/17 08:59:16;;;;;;;30.75;10.50;;;9.30;99.90;;;;;;5095931;28;20047;-71
2021/12/17 09:01:44;;;;;;;29.52;11.63;;;8.30;99.90;;;;;;5096453;28;20384;-71
2021/12/17 09:04:10;;;;;;;28.40;10.57;;;;;;;;;;5094238;28;20076;-71
2021/12/17 09:06:39;;;;;;;24.60;9.98;;;9.60;99.90;;;;;;5075681;28;20372;-71
2021/12/17 09:09:05;;;;;;;32.35;10.73;;;;;;;;;;5102232;28;20047;-71
2021/12/17 09:11:31;;;;;;;25.02;10.23;;;9.70;99.90;;;;;;5094058;28;20042;-71
2021/12/17 09:13:59;;;;;;;23.42;9.68;;;8.70;99.90;;;;;;5094594;28;20058;-71
2021/12/17 09:16:25;;;;;;;24.25;10.15;;;;;;;;;;5093450;28;20097;-72
2021/12/17 09:18:52;;;;;;;27.63;10.02;;;7.90;99.90;;;;;;5100614;28;20408;-71
2021/12/17 09:21:19;;;;;;;24.63;9.85;;;;;;;;;;5079738;28;20036;-71
2021/12/17 09:23:46;;;;;;;23.80;9.38;;;8.80;99.90;;;;;;5102729;28;20384;-72
2021/12/17 09:26:14;;;;;;;26.30;9.13;;;8.80;99.90;;;;;;5096673;28;20063;-72
2021/12/17 09:28:39;;;;;;;28.58;10.10;;;8.20;99.90;;;;;;5093089;28;20044;-72
2021/12/17 09:31:12;;;;;;;23.92;8.55;;;8.80;99.90;;;;;;5090125;28;20096;-73
2021/12/17 09:33:44;;;;;;;21.08;8.15;;;8.70;99.90;;;;;;5078678;28;20043;-71
2021/12/17 09:36:12;;;;;;;28.20;10.88;;;7.70;99.90;;;;;;5104413;28;20100;-72
2021/12/17 09:38:39;;;;;;;21.90;8.75;;;8.10;99.90;;;;;;5091783;28;20040;-72
2021/12/17 09:41:05;;;;;;;17.67;8.73;;;8.80;99.90;;;;;;5092044;28;20039;-72
2021/12/17 09:43:36;;;;;;;18.08;8.48;;;9.10;99.90;;;;;;5091944;28;20056;-72
2021/12/17 09:46:05;;;;;;;20.08;8.23;;;8.90;99.90;;;;;;5075342;28;20036;-72
2021/12/17 09:48:33;;;;;;;21.88;8.57;;;9.20;99.90;;;;;;5092204;28;20559;-72
2021/12/17 09:51:01;;;;;;;16.58;7.97;;;;;;;;;;5091884;28;20387;-72
2021/12/17 09:53:27;;;;;;;20.27;8.23;;;;;;;;;;5091874;28;20174;-72
2021/12/17 09:55:53;;;;;;;20.27;7.57;;;9.70;99.90;;;;;;5094502;28;20503;-72
2021/12/17 09:58:19;;;;;;;15.65;7.20;;;;;;;;;;5096078;28;20036;-72
2021/12/17 10:00:45;;;;;;;18.42;8.02;;;;;;;;;;5079013;28;20135;-72
2021/12/17 10:03:11;;;;;;;21.02;8.00;;;;;;;;;;5095893;28;20119;-72
2021/12/17 10:05:39;;;;;;;21.05;7.60;;;9.00;99.90;;;;;;5096091;28;20036;-72
2021/12/17 10:08:17;;;;;;;17.55;7.20;;;9.00;99.90;;;;;;5096071;28;20036;-72
2021/12/17 10:10:49;;;;;;;12.35;6.97;;;9.00;99.90;;;;;;5095972;28;20537;-70
2021/12/17 10:13:20;;;;;;;14.63;7.03;;;8.90;99.90;;;;;;5095933;28;20052;-70
2021/12/17 10:15:52;;;;;;;15.23;6.78;;;9.20;99.90;;;;;;5095680;28;20036;-70
2021/12/17 10:18:18;;;;;;;12.25;6.60;;;;;;;;;;5095544;28;20091;-73
2021/12/17 10:20:57;;;;;;;12.48;6.50;;;9.70;99.90;;;;;;5095604;28;20044;-73
2021/12/17 10:23:25;;;;;;;10.60;6.25;;;9.00;99.90;;;;;;5095693;28;20044;-73
2021/12/17 10:25:51;;;;;;;13.38;6.20;;;9.80;99.90;;;;;;5095599;28;20075;-72
2021/12/17 10:28:17;;;;;;;11.70;6.10;;;;;;;;;;5095465;28;20043;-72
2021/12/17 10:30:45;;;;;;;13.20;5.82;;;9.20;99.90;;;;;;5095381;28;20514;-73
2021/12/17 10:33:14;;;;;;;12.02;5.75;;;9.40;99.90;;;;;;5095355;28;20044;-72
2021/12/17 10:35:46;;;;;;;8.70;5.53;;;;;;;;;;5095487;28;20036;-72
2021/12/17 10:38:15;;;;;;;11.15;5.65;;;9.70;99.90;;;;;;5095113;28;20480;-73
2021/12/17 10:41:02;;;;;;;10.68;5.75;;;9.00;99.90;;;;;;5095880;28;20395;-72
2021/12/17 10:43:36;;;;;;;8.52;5.55;;;9.20;99.90;;;;;;5095467;28;20353;-72
2021/12/17 10:51:22;;;;;;;8.90;6.18;;;8.90;99.90;;;;;;5095268;28;20380;-72
2021/12/17 10:53:54;;;;;;;10.02;5.68;;;9.50;99.90;;;;;;5095094;28;20075;-72
2021/12/17 10:56:30;;;;;;;8.13;5.60;;;9.40;99.90;;;;;;5094929;28;20040;-72
2021/12/17 10:59:18;;;;;;;10.00;5.90;;;9.20;99.90;;;;;;5094906;28;20040;-72
2021/12/17 11:01:54;;;;;;;9.88;5.57;;;9.30;99.90;;;;;;5094855;28;20036;-72
2021/12/17 11:04:25;;;;;;;9.30;5.75;;;8.40;99.90;;;;;;5094817;28;20047;-72
2021/12/17 11:07:01;;;;;;;8.63;6.20;;;;;;;;;;5094242;28;20514;-73
2021/12/17 11:09:58;;;;;;;11.40;6.47;;;9.10;99.90;;;;;;5094600;28;20040;-72
2021/12/17 11:12:28;;;;;;;8.25;5.85;;;9.30;99.90;;;;;;5078277;28;20542;-72
2021/12/17 11:15:19;;;;;;;9.02;6.15;;;9.50;99.90;;;;;;5077629;28;20047;-73
2021/12/17 11:17:52;;;;;;;8.57;6.07;;;8.40;99.90;;;;;;5094309;28;20103;-73
2021/12/17 11:20:20;;;;;;;9.35;6.05;;;9.20;99.90;;;;;;5094513;28;20059;-73
2021/12/17 11:22:49;;;;;;;8.43;6.10;;;9.40;99.90;;;;;;5094495;28;20472;-73
2021/12/17 11:25:17;;;;;;;9.55;6.47;;;9.50;99.90;;;;;;5094845;28;20048;-72
2021/12/17 11:27:43;;;;;;;11.55;6.88;;;;;;;;;;5094421;28;20048;-73
2021/12/17 11:30:13;;;;;;;11.40;7.18;;;9.20;99.90;;;;;;5094287;28;20557;-72
2021/12/17 11:32:39;;;;;;;9.60;6.85;;;;;;;;;;5094306;28;20040;-73
2021/12/17 11:35:05;;;;;;;12.43;6.85;;;10.00;99.90;;;;;;5093784;28;20044;-73
2021/12/17 11:37:32;;;;;;;8.80;6.75;;;9.40;99.90;;;;;;5094048;28;20028;-73
2021/12/17 11:40:03;;;;;;;9.88;7.20;;;9.20;99.90;;;;;;5094380;28;20040;-73
2021/12/17 11:43:00;;;;;;;14.32;7.90;;;10.20;99.90;;;;;;5077070;28;20043;-72
2021/12/17 11:45:28;;;;;;;12.68;7.70;;;9.40;99.90;;;;;;5094159;28;20630;-72
2021/12/17 11:48:10;;;;;;;9.00;6.57;;;9.40;99.90;;;;;;5093999;28;20087;-73
2021/12/17 11:50:36;;;;;;;13.23;7.68;;;;;;;;;;5094106;28;20073;-73
2021/12/17 11:53:24;;;;;;;10.00;6.65;;;9.40;99.90;;;;;;5093682;28;20040;-73
2021/12/17 11:55:59;;;;;;;12.88;7.57;;;9.60;99.90;;;;;;5093971;28;20040;-73
2021/12/17 11:58:51;;;;;;;13.55;7.30;;;9.40;99.90;;;;;;5093593;28;20032;-73
2021/12/17 12:01:51;;;;;;;12.65;7.40;;;10.10;99.90;;;;;;5093852;28;20051;-72
2021/12/17 12:04:51;;;;;;;10.80;7.50;;;9.30;99.90;;;;;;5093556;28;20078;-72
2021/12/17 12:07:24;;;;;;;11.82;7.22;;;8.90;99.90;;;;;;5093598;28;20165;-73
2021/12/17 12:10:00;;;;;;;11.15;7.13;;;9.60;99.90;;;;;;5093475;28;20109;-73
2021/12/17 12:12:35;;;;;;;9.90;7.63;;;9.50;99.90;;;;;;5093305;28;20052;-73
2021/12/17 12:15:23;;;;;;;13.23;7.30;;;9.50;99.90;;;;;;5093679;28;20044;-72
2021/12/17 12:17:58;;;;;;;13.85;6.93;;;9.50;99.90;;;;;;5092931;28;20054;-73
2021/12/17 12:20:45;;;;;;;11.80;7.68;;;9.30;99.90;;;;;;5093072;28;20048;-73
2021/12/17 12:23:29;;;;;;;11.35;7.07;;;8.50;99.90;;;;;;5093185;28;20047;-73
2021/12/17 12:26:05;;;;;;;12.38;6.85;;;;;;;;;;5076479;28;20062;-73
2021/12/17 12:28:47;;;;;;;12.43;6.72;;;;;;;;;;5093031;28;20076;-73
2021/12/17 12:31:30;;;;;;;12.20;7.47;;;9.90;99.90;;;;;;5093078;28;20475;-73
2021/12/17 12:34:02;;;;;;;12.35;7.28;;;9.50;99.90;;;;;;5093381;28;20163;-72
2021/12/17 12:36:44;;;;;;;15.35;7.22;;;;;;;;;;5093151;28;20507;-73
2021/12/17 12:39:22;;;;;;;11.50;6.35;;;;;;;;;;5092840;28;20048;-72
2021/12/17 12:41:57;;;;;;;9.85;6.45;;;9.30;99.90;;;;;;5092859;28;20124;-73
2021/12/17 12:44:42;;;;;;;9.35;6.38;;;;;;;;;;5075824;28;20090;-73
2021/12/17 12:47:25;;;;;;;9.70;6.03;;;9.50;99.90;;;;;;5092740;28;20040;-73
2021/12/17 12:49:51;;;;;;;8.70;6.00;;;;;;;;;;5092723;28;20054;-73
2021/12/17 12:52:26;;;;;;;10.77;6.10;;;9.60;99.90;;;;;;5092605;28;20036;-73
2021/12/17 12:54:56;;;;;;;9.30;5.95;;;8.70;99.90;;;;;;5092887;28;20036;-72
2021/12/17 12:57:34;;;;;;;9.65;6.82;;;9.40;99.90;;;;;;5093098;28;20098;-73
2021/12/17 13:00:06;;;;;;;9.15;5.68;;;9.50;99.90;;;;;;5092502;28;20036;-73
2021/12/17 13:02:32;;;;;;;9.63;5.95;;;9.40;99.90;;;;;;5092645;28;20101;-73
2021/12/17 13:04:59;;;;;;;8.50;5.97;;;9.70;99.90;;;;;;5075618;28;20040;-73
2021/12/17 13:07:41;;;;;;;9.98;6.03;;;10.40;99.90;;;;;;5075664;28;20048;-73
2021/12/17 13:10:13;;;;;;;8.73;5.50;;;9.60;99.90;;;;;;5092708;28;20032;-73
2021/12/17 13:12:40;;;;;;;8.60;5.88;;;9.40;99.90;;;;;;5092508;28;20044;-72
2021/12/17 13:15:31;;;;;;;9.75;5.63;;;10.40;99.90;;;;;;5092278;28;20036;-72
2021/12/17 13:20:59;;;;;;;8.93;5.72;;;9.70;99.90;;;;;;5092478;28;20055;-72
2021/12/17 13:23:25;;;;;;;7.85;5.05;;;;;;;;;;5092546;28;20094;-73
2021/12/17 13:26:09;;;;;;;8.75;5.40;;;;;;;;;;5092232;28;20047;-73
2021/12/17 13:28:51;;;;;;;7.43;5.82;;;9.40;99.90;;;;;;5092240;28;20039;-73
2021/12/17 13:31:38;;;;;;;6.28;4.82;;;9.60;99.90;;;;;;5092187;28;20373;-73
2021/12/17 13:34:12;;;;;;;9.07;5.05;;;10.10;99.90;;;;;;5092451;28;20056;-73
2021/12/17 13:36:53;;;;;;;8.55;5.43;;;9.50;99.90;;;;;;5092271;28;20073;-73
2021/12/17 13:39:22;;;;;;;8.00;5.80;;;9.50;99.90;;;;;;5092056;28;20070;-73
2021/12/17 13:41:48;;;;;;;11.80;5.95;;;;;;;;;;5092287;28;20044;-73
2021/12/17 13:44:41;;;;;;;8.23;6.05;;;9.70;99.90;;;;;;5092484;28;20072;-73
2021/12/17 13:47:12;;;;;;;8.10;5.78;;;9.40;99.90;;;;;;5075295;28;20395;-73
2021/12/17 13:49:40;;;;;;;9.25;6.35;;;9.50;99.90;;;;;;5092358;28;20438;-73
2021/12/17 13:52:07;;;;;;;8.55;5.80;;;;;;;;;;5091875;28;20075;-73
2021/12/17 13:54:33;;;;;;;8.48;5.75;;;10.30;99.90;;;;;;5091984;28;20040;-72
2021/12/17 13:57:01;;;;;;;6.85;5.20;;;8.50;99.90;;;;;;5092130;28;20493;-73
2021/12/17 13:59:33;;;;;;;6.88;5.10;;;9.50;99.90;;;;;;5091978;28;20357;-73
2021/12/17 14:01:59;;;;;;;9.52;5.20;;;;;;;;;;5092259;28;20067;-73
2021/12/17 14:04:25;;;;;;;10.85;6.10;;;;;;;;;;5092036;28;20155;-73
2021/12/17 14:06:53;;;;;;;8.85;4.97;;;10.40;99.90;;;;;;5093209;28;20040;-73
2021/12/17 14:09:21;;;;;;;6.38;4.20;;;9.50;99.90;;;;;;5091833;28;20062;-72
2021/12/17 14:11:47;;;;;;;7.25;4.82;;;;;;;;;;5091685;28;20040;-73
2021/12/17 14:14:27;;;;;;;6.15;4.70;;;10.00;99.90;;;;;;5091665;28;20075;-73
2021/12/17 14:17:02;;;;;;;6.75;4.90;;;9.60;99.90;;;;;;5091705;28;20044;-73
2021/12/17 14:19:43;;;;;;;7.25;4.90;;;9.50;99.90;;;;;;5091660;28;20047;-73
2021/12/17 14:22:29;;;;;;;7.35;5.15;;;;;;;;;;5091675;28;20035;-73
2021/12/17 14:24:56;;;;;;;6.10;4.70;;;9.00;99.90;;;;;;5091826;28;20147;-73
2021/12/17 14:27:22;;;;;;;5.43;4.13;;;8.60;99.90;;;;;;5091794;28;20072;-73
2021/12/17 14:30:02;;;;;;;5.93;4.25;;;9.70;99.90;;;;;;5091888;28;20135;-73
2021/12/17 14:32:29;;;;;;;7.85;5.30;;;;;;;;;;5091455;28;20046;-73
2021/12/17 14:34:55;;;;;;;8.15;5.65;;;;;;;;;;5074693;28;20044;-73
2021/12/17 14:37:21;;;;;;;10.07;5.70;;;;;;;;;;5091812;28;20047;-73
2021/12/17 14:39:48;;;;;;;10.25;6.43;;;;;;;;;;5091441;28;20040;-73
2021/12/17 14:42:30;;;;;;;10.30;6.25;;;9.40;99.90;;;;;;5092975;28;20043;-73
2021/12/17 14:45:02;;;;;;;8.77;6.13;;;9.40;99.90;;;;;;5095119;28;20093;-73
2021/12/17 14:47:46;;;;;;;10.10;6.40;;;;;;;;;;5094979;28;20075;-73
2021/12/17 15:01:38;;;;;;;11.50;6.85;;;;;;;;;;5094741;28;20066;-73
2021/12/17 15:04:04;;;;;;;9.80;6.32;;;;;;;;;;5094654;28;20038;-73
2021/12/17 15:06:29;;;;;;;10.50;7.00;;;9.20;99.90;;;;;;5077930;28;20400;-73
2021/12/17 15:08:57;;;;;;;11.85;6.32;;;9.50;99.90;;;;;;5094782;28;20043;-73
2021/12/17 15:11:30;;;;;;;10.30;6.57;;;8.50;99.90;;;;;;5094610;28;20044;-72
2021/12/17 15:13:57;;;;;;;15.73;7.22;;;;;;;;;;5094779;28;20400;-72
2021/12/17 15:16:23;;;;;;;16.13;6.63;;;;;;;;;;5094536;28;20093;-72
2021/12/17 15:18:49;;;;;;;11.63;6.97;;;;;;;;;;5094360;28;20138;-73
2021/12/17 15:21:15;;;;;;;10.05;7.20;;;;;;;;;;5094377;28;20043;-72
2021/12/17 15:23:41;;;;;;;9.38;6.75;;;9.80;99.90;;;;;;5094227;28;20122;-73
2021/12/17 15:26:07;;;;;;;11.38;6.72;;;;;;;;;;5094546;28;20075;-73
2021/12/17 15:28:33;;;;;;;10.50;6.97;;;;;;;;;;5094206;28;20042;-73
2021/12/17 15:31:04;;;;;;;11.98;7.85;;;9.40;99.90;;;;;;5094332;28;20050;-73
2021/12/17 15:33:30;;;;;;;13.13;6.90;;;10.20;99.90;;;;;;5094447;28;20040;-72
2021/12/17 15:35:56;;;;;;;7.65;6.10;;;9.70;99.90;;;;;;5094292;28;20404;-72
2021/12/17 15:38:23;;;;;;;12.80;6.57;;;;;;;;;;5094237;28;20403;-72
2021/12/17 15:40:50;;;;;;;11.07;7.38;;;9.20;99.90;;;;;;5094320;28;20065;-72
2021/12/17 15:43:17;;;;;;;12.13;7.47;;;9.90;99.90;;;;;;5077160;28;20047;-72
2021/12/17 15:45:45;;;;;;;14.57;7.13;;;9.40;99.90;;;;;;5093949;28;20036;-72
2021/12/17 15:48:13;;;;;;;14.02;8.43;;;9.20;99.90;;;;;;5094172;28;20101;-73
2021/12/17 15:50:40;;;;;;;13.65;7.78;;;9.60;99.90;;;;;;5093836;28;20496;-73
2021/12/17 15:53:06;;;;;;;12.98;7.90;;;;;;;;;;5093864;28;20434;-73
2021/12/17 15:55:33;;;;;;;12.82;8.55;;;;;;;;;;5093811;28;20036;-73
2021/12/17 15:57:59;;;;;;;17.58;8.18;;;;;;;;;;5093592;28;20048;-73
2021/12/17 16:00:27;;;;;;;15.57;8.50;;;9.20;99.90;;;;;;5093953;28;20047;-73
2021/12/17 16:02:54;;;;;;;11.50;7.68;;;;;;;;;;5093945;28;20071;-72
2021/12/17 16:05:23;;;;;;;13.73;8.90;;;9.40;99.90;;;;;;5093459;28;20119;-72
2021/12/17 16:07:52;;;;;;;13.73;8.40;;;9.40;99.90;;;;;;5093497;28;20502;-73
2021/12/17 16:21:11;;;;;;;16.05;9.18;;;;;;;;;;5093580;28;20047;-73
2021/12/17 16:23:46;;;;;;;18.90;9.20;;;9.30;99.90;;;;;;5076456;28;20123;-73
2021/12/17 16:26:15;;;;;;;15.90;9.05;;;9.40;99.90;;;;;;5093235;28;20111;-73
2021/12/17 16:28:45;;;;;;;13.68;7.55;;;9.20;99.90;;;;;;5093116;28;20062;-73
2021/12/17 16:31:17;;;;;;;14.27;8.05;;;9.40;99.90;;;;;;5093058;28;20128;-73
2021/12/17 16:33:46;;;;;;;16.70;9.20;;;9.30;99.90;;;;;;5093322;28;20484;-73
2021/12/17 16:36:12;;;;;;;21.30;9.35;;;;;;;;;;5092854;28;20047;-72
2021/12/17 16:38:39;;;;;;;20.75;10.50;;;9.70;99.90;;;;;;5092715;28;20081;-73
2021/12/17 16:41:06;;;;;;;25.00;11.27;;;9.20;99.90;;;;;;5092953;28;20036;-72
2021/12/17 16:43:32;;;;;;;29.15;11.98;;;;;;;;;;5076681;28;20062;-72
2021/12/17 16:46:12;;;;;;;30.05;12.77;;;9.60;99.90;;;;;;5093147;28;20081;-73
2021/12/17 16:48:46;;;;;;;27.98;12.70;;;9.20;99.90;;;;;;5092746;28;20044;-72
2021/12/17 16:51:14;;;;;;;33.63;12.25;;;9.00;99.90;;;;;;5092773;28;20466;-72
2021/12/17 16:53:41;;;;;;;31.77;12.60;;;8.00;99.90;;;;;;5093034;28;20039;-72
2021/12/17 16:56:07;;;;;;;31.63;13.32;;;9.10;99.90;;;;;;5075782;28;20044;-72
2021/12/17 16:58:33;;;;;;;26.27;12.82;;;9.30;99.90;;;;;;5092511;28;20048;-72
2021/12/17 17:01:00;;;;;;;40.72;14.00;;;9.00;99.90;;;;;;5092635;28;20036;-73
2021/12/17 17:03:27;;;;;;;34.65;12.90;;;9.00;99.90;;;;;;5092842;28;20039;-72